Greenville Spartanburg International Airport
KGSP : rendu visible

Aérodrome :











RETROUVEZ-NOUS SUR...

 
LOGIN :

S'inscrire | Disclaimer

   EN    FR    IT 

 









Légende :    VFR   VFR Marginal   IFR   IFR Intensif   IFR Très Intensif
Visi : 
Plafond : 
>= 8 km
>= 3000ft
5 à 8 km
1000 à 3000 ft
1500m à 5 km
500 à 1000 ft
800 à 1500m
200 à 500 ft
< 800m
< 200 ft
Symboles :   Orages  Brouillard  Fortes neiges  Fortes précipitations  Vent > 20 kt







- Altitude de l'aérodrome : 964 ft
- Code IATA : GSP


KGSP - Greenville Spartanburg International

DERNIER METAR :
  • 251053Z 03006KT 10SM BKN016 OVC025 18/14 A3015 RMK AO2 SLP200 T01780144

METARs EXPIRÉS :
  • 250953Z 04008KT 10SM OVC013 17/14 A3014 RMK AO2 SLP198 T01720144
  • 250853Z AUTO 04009KT 10SM OVC012 17/14 A3014 RMK AO2 SLP198 T01720144 56012
  • 250831Z AUTO 03009KT 10SM OVC013 17/14 A3014 RMK AO2 T01720144

TAF KGSP
Valide du 25 à 06h jusqu'au 26 à 06h UTC


250537Z 2506/2606 04010KT P6SM OVC018
FM250900 04009G18KT P6SM OVC022
FM252100 06010KT P6SM SCT026 BKN050
FM260100 04007KT P6SM BKN025 OVC045
Pas de NOTAMs connus pour ce terrain.



MET'MAP, la Météo Aéronautique d'un coup d'oeil ! - Copyright ORBIFLY Décembre 2007 - Disclaimer

ORBIFLY MET'MAP TEAM :

Programmation & Développement : Alexandra Zaïnal
Conception & Développement : Baudouin d'Aumeries
Co-Programmation & Développement : Marc-Olivier Méhu
Soutien technique & logistique : Manuel Goepfert

Contact : metmap@orbifly.com




SOURCES & CREDITS :

   NOAA       Earth
Advisory